Details From PAYA - YAKUTAT
To PAOR - NORTHWAY
Flight Number -
Tags generated
Created
Modified
Stats Distance 230 nm / 427 km
Max Altitude 29,700 ft / 9,053 m
Waypoints 5
Social Downloads 0
Likes 0
Share VATSIM

Download

Looking for another format? Having issues loading an existing format? Contact us
Advertisement - Login to hide

Notes

Basic altitude profile: - Ascent Rate: 2500ft/min - Ascent Speed: 250kts - Cruise Altitude: 35000ft - Cruise Speed: 420kts - Descent Rate: 1500ft/min - Descent Speed: 250kts Options: - Use NATs: yes - Use PACOTS: yes - Use low airways: no - Use high airways: no

Route

PAYA 6000N14000W 6100N14000W 6200N14000W PAOR

ID Type Via Altitude Latitude Longitude Leg Dist Tot Dist Heading (true) Name
O PAYA APT - 0 ft / 0 m 59.50325˚ -139.66125˚ - 0 nm - YAKUTAT
6000N14000W LATLON - 10,200 ft / 3,109 m 60.00000˚ -140.00000˚ 31 nm 31 nm 341° / 341° -
6100N14000W LATLON - 29,700 ft / 9,053 m 61.00000˚ -140.00000˚ 60 nm 91 nm 0° / 360° -
6200N14000W LATLON - 15,800 ft / 4,816 m 62.00000˚ -140.00000˚ 60 nm 151 nm 0° / 360° -
O PAOR APT - 0 ft / 0 m 62.96133˚ -141.92914˚ 78 nm 230 nm 318° / 316° NORTHWAY

Altitude Profile

Advertisement - Login to hide

Weather


0- 5 10 15 20 25 30 35+ Temperature / ° C

Clouds and Precipitation
Forecast for 2018-05-25 18:00 UTC. Updated 4 hours ago

Ground ~20,000 ft ~40,000 ft Winds

PAYA

Details ICAO PAYA (YAK)
Name YAKUTAT
Region USA (Alaska)
Timezone America/Yakutat (UTC-8.0)
Stats Elevation 33 ft / 10 m (AMSL)
Location 59.503248° -139.661250°
Runways 2
Magnetic Variation 18.566° E

METAR

PAYA 252053Z AUTO 14012G21KT 6SM -RA OVC039 08/06 A2983 RMK AO2 SLP100 P0005 60008 T00830056 53004 TSNO

Decode

TAF

PAYA 251722Z 2518/2618 04007KT P6SM -RA SCT023 OVC035 TEMPO 2519/2523 11010KT BKN015 OVC030 FM260000 14008KT P6SM -SHRA SCT015 OVC025 FM260600 09003KT P6SM VCSH BKN040 OVC060 AMD LTD TO CLD VIS AND WIND

Decode

Departure Runways

ID Width Length Bearing (true) Bearing (mag) Surface Threshold Offset Overrun Length
02 150 ft / 46 m 6,460 ft / 1,969 m 44.92° 26.35° Concrete 1,388 ft / 423 m 0 ft / 0 m
11 150 ft / 46 m 7,727 ft / 2,355 m 135.05° 116.48° Asphalt 0 ft / 0 m 0 ft / 0 m
20 150 ft / 46 m 6,460 ft / 1,969 m 224.95° 206.38° Concrete 0 ft / 0 m 0 ft / 0 m
29 150 ft / 46 m 7,727 ft / 2,355 m 315.08° 296.51° Asphalt 0 ft / 0 m 0 ft / 0 m

PAOR

Details ICAO PAOR (ORT)
Name NORTHWAY
Region USA (Alaska)
Timezone America/Anchorage (UTC-8.0)
Stats Elevation 1,716 ft / 523 m (AMSL)
Location 62.961333° -141.929136°
Runways 1
Magnetic Variation 18.767° E

METAR

PAOR 252053Z 11004KT 10SM SCT100 13/M07 A2968

Decode

TAF

TAF PAOR 251720Z 2518/2618 VRB04KT P6SM FEW050 SCT070 BKN120

Decode

Destination Runways

ID Width Length Bearing (true) Bearing (mag) Surface Threshold Offset Overrun Length
04 100 ft / 30 m 3,293 ft / 1,004 m 73.97° 55.20° Gravel 0 ft / 0 m 1,353 ft / 412 m
22 100 ft / 30 m 3,293 ft / 1,004 m 253.99° 235.22° Gravel 0 ft / 0 m 1,000 ft / 305 m